This is the latest recevied weather packets stored in our database for station/object DB0RSR-12. If no packets are shown the sender has not sent any weather packets the latest 10 day(s).
| Time | Temp. | Humidity | Pressure | Rain* | Wind** | Luminosity | Snow |
|---|---|---|---|---|---|---|---|
| 1777902077 | 30° C | 28% | 997 hPa | - | - | - | - |
| 1777901177 | 31.11° C | 28% | 998 hPa | - | - | - | - |
| 1777900277 | 32.78° C | 24% | 998 hPa | - | - | - | - |
| 1777899377 | 31.67° C | 27% | 998 hPa | - | - | - | - |
| 1777898477 | 31.11° C | 27% | 998 hPa | - | - | - | - |
| 1777897577 | 31.11° C | 26% | 998 hPa | - | - | - | - |
| 1777896676 | 31.67° C | 25% | 998 hPa | - | - | - | - |
| 1777895776 | 31.11° C | 27% | 998 hPa | - | - | - | - |
| 1777894876 | 31.11° C | 27% | 998 hPa | - | - | - | - |
| 1777893976 | 30° C | 29% | 998 hPa | - | - | - | - |
| 1777893076 | 29.44° C | 29% | 998 hPa | - | - | - | - |
| 1777892176 | 28.89° C | 32% | 998 hPa | - | - | - | - |
| 1777891276 | 29.44° C | 31% | 998 hPa | - | - | - | - |
| 1777890376 | 29.44° C | 30% | 998 hPa | - | - | - | - |
| 1777889476 | 28.89° C | 31% | 999 hPa | - | - | - | - |
| 1777888576 | 27.78° C | 34% | 999 hPa | - | - | - | - |
| 1777887676 | 27.22° C | 34% | 999 hPa | - | - | - | - |
| 1777886776 | 27.22° C | 35% | 999 hPa | - | - | - | - |
| 1777885876 | 26.11° C | 37% | 999 hPa | - | - | - | - |
| 1777884975 | 24.44° C | 41% | 999 hPa | - | - | - | - |
| 1777884075 | 22.78° C | 43% | 999 hPa | - | - | - | - |
| 1777883175 | 21.67° C | 45% | 999 hPa | - | - | - | - |
| 1777882275 | 21.11° C | 46% | 999 hPa | - | - | - | - |
| 1777881375 | 21.11° C | 45% | 999 hPa | - | - | - | - |
| 1777880475 | 20° C | 47% | 998 hPa | - | - | - | - |
* Rain since midnight (hover to see other rain measurements)
** Current wind speed in m/s (hover to see current wind gust speed)